Terminal Aerodrome Forecast
Issued by NWS

Home | Current Version | Previous Version | Text Only | Print | Product List | Glossary On
Versions: 1 2 3 4 5 6 7 8 9 10 11 12 13 14 15 16 17 18 19 20 21
000
FTUS41 KBTV 311237 AAB
TAFSLK
TAF AMD
KSLK 311237Z 3113/0112 00000KT 1/4SM FZFG VV001
     FM311330 06004KT P6SM BKN035
     FM312000 12004KT P6SM -SHRA BKN028
     FM010400 03004KT 4SM -SHRASN SCT018 OVC020=

USA.gov is the U.S. government's official web portal to all federal, state and local government web resources and services.